sensor_id;sensor_type;location;lat;lon;timestamp;P1;durP1;ratioP1;P2;durP2;ratioP2
18090;SDS011;9172;49.948;9.208;2024-01-30T00:02:27;3.00;;;2.10;;
18090;SDS011;9172;49.948;9.208;2024-01-30T00:04:56;3.53;;;2.23;;
18090;SDS011;9172;49.948;9.208;2024-01-30T00:07:24;4.37;;;2.13;;
18090;SDS011;9172;49.948;9.208;2024-01-30T00:09:53;5.43;;;2.40;;
18090;SDS011;9172;49.948;9.208;2024-01-30T00:12:21;3.27;;;2.17;;
18090;SDS011;9172;49.948;9.208;2024-01-30T00:14:50;4.03;;;2.40;;
18090;SDS011;9172;49.948;9.208;2024-01-30T00:17:18;5.87;;;2.20;;
18090;SDS011;9172;49.948;9.208;2024-01-30T00:19:47;7.87;;;3.60;;
18090;SDS011;9172;49.948;9.208;2024-01-30T00:22:16;6.23;;;2.70;;
18090;SDS011;9172;49.948;9.208;2024-01-30T00:24:44;4.93;;;2.40;;
18090;SDS011;9172;49.948;9.208;2024-01-30T00:27:13;3.73;;;2.40;;
18090;SDS011;9172;49.948;9.208;2024-01-30T00:29:42;6.10;;;2.63;;
18090;SDS011;9172;49.948;9.208;2024-01-30T00:32:10;5.73;;;2.77;;
18090;SDS011;9172;49.948;9.208;2024-01-30T00:34:39;4.27;;;2.67;;
18090;SDS011;9172;49.948;9.208;2024-01-30T00:37:08;5.37;;;2.93;;
18090;SDS011;9172;49.948;9.208;2024-01-30T00:39:37;6.60;;;2.80;;
18090;SDS011;9172;49.948;9.208;2024-01-30T00:42:06;5.10;;;3.07;;
18090;SDS011;9172;49.948;9.208;2024-01-30T00:44:35;6.10;;;2.60;;
18090;SDS011;9172;49.948;9.208;2024-01-30T00:47:04;7.27;;;2.83;;
18090;SDS011;9172;49.948;9.208;2024-01-30T00:49:33;6.47;;;2.70;;
18090;SDS011;9172;49.948;9.208;2024-01-30T00:52:03;5.37;;;2.70;;
18090;SDS011;9172;49.948;9.208;2024-01-30T00:54:32;5.23;;;2.57;;
18090;SDS011;9172;49.948;9.208;2024-01-30T00:57:01;7.10;;;3.00;;
18090;SDS011;9172;49.948;9.208;2024-01-30T00:59:29;5.93;;;3.03;;
18090;SDS011;9172;49.948;9.208;2024-01-30T01:01:58;5.43;;;3.30;;
18090;SDS011;9172;49.948;9.208;2024-01-30T01:04:26;6.00;;;2.90;;
18090;SDS011;9172;49.948;9.208;2024-01-30T01:06:55;5.00;;;2.83;;
18090;SDS011;9172;49.948;9.208;2024-01-30T01:09:23;7.60;;;3.93;;
18090;SDS011;9172;49.948;9.208;2024-01-30T01:11:52;5.57;;;3.50;;
18090;SDS011;9172;49.948;9.208;2024-01-30T01:14:21;6.53;;;3.40;;
18090;SDS011;9172;49.948;9.208;2024-01-30T01:16:50;6.13;;;3.67;;
18090;SDS011;9172;49.948;9.208;2024-01-30T01:19:18;4.73;;;2.60;;
18090;SDS011;9172;49.948;9.208;2024-01-30T01:21:47;5.70;;;3.03;;
18090;SDS011;9172;49.948;9.208;2024-01-30T01:24:15;5.53;;;3.07;;
18090;SDS011;9172;49.948;9.208;2024-01-30T01:26:44;4.50;;;2.97;;
18090;SDS011;9172;49.948;9.208;2024-01-30T01:29:12;5.33;;;3.27;;
18090;SDS011;9172;49.948;9.208;2024-01-30T01:31:42;8.03;;;3.17;;
18090;SDS011;9172;49.948;9.208;2024-01-30T01:34:10;4.27;;;2.60;;
18090;SDS011;9172;49.948;9.208;2024-01-30T01:36:39;5.50;;;2.97;;
18090;SDS011;9172;49.948;9.208;2024-01-30T01:39:08;8.10;;;3.00;;
18090;SDS011;9172;49.948;9.208;2024-01-30T01:41:36;5.07;;;3.00;;
18090;SDS011;9172;49.948;9.208;2024-01-30T01:44:05;4.67;;;2.57;;
18090;SDS011;9172;49.948;9.208;2024-01-30T01:46:34;4.10;;;2.50;;
18090;SDS011;9172;49.948;9.208;2024-01-30T01:49:04;5.60;;;3.07;;
18090;SDS011;9172;49.948;9.208;2024-01-30T01:51:34;7.73;;;2.63;;
18090;SDS011;9172;49.948;9.208;2024-01-30T01:54:05;7.33;;;2.80;;
18090;SDS011;9172;49.948;9.208;2024-01-30T01:56:33;6.37;;;2.97;;
18090;SDS011;9172;49.948;9.208;2024-01-30T01:59:05;6.13;;;3.53;;
18090;SDS011;9172;49.948;9.208;2024-01-30T02:01:34;5.90;;;3.43;;
18090;SDS011;9172;49.948;9.208;2024-01-30T02:04:04;6.07;;;3.27;;
18090;SDS011;9172;49.948;9.208;2024-01-30T02:06:32;4.53;;;3.10;;
18090;SDS011;9172;49.948;9.208;2024-01-30T02:09:01;6.77;;;3.43;;
18090;SDS011;9172;49.948;9.208;2024-01-30T02:11:31;5.13;;;3.07;;
18090;SDS011;9172;49.948;9.208;2024-01-30T02:14:02;4.57;;;2.77;;
18090;SDS011;9172;49.948;9.208;2024-01-30T02:16:31;5.10;;;3.20;;
18090;SDS011;9172;49.948;9.208;2024-01-30T02:19:00;5.10;;;2.97;;
18090;SDS011;9172;49.948;9.208;2024-01-30T02:21:28;5.43;;;3.13;;
18090;SDS011;9172;49.948;9.208;2024-01-30T02:23:57;9.03;;;3.30;;
18090;SDS011;9172;49.948;9.208;2024-01-30T02:26:26;5.27;;;3.10;;
18090;SDS011;9172;49.948;9.208;2024-01-30T02:28:55;5.63;;;3.40;;
18090;SDS011;9172;49.948;9.208;2024-01-30T02:31:25;7.03;;;3.73;;
18090;SDS011;9172;49.948;9.208;2024-01-30T02:33:53;5.63;;;3.50;;
18090;SDS011;9172;49.948;9.208;2024-01-30T02:36:22;5.97;;;3.43;;
18090;SDS011;9172;49.948;9.208;2024-01-30T02:38:51;4.97;;;3.30;;
18090;SDS011;9172;49.948;9.208;2024-01-30T02:41:19;8.97;;;3.53;;
18090;SDS011;9172;49.948;9.208;2024-01-30T02:43:48;4.33;;;2.77;;
18090;SDS011;9172;49.948;9.208;2024-01-30T02:46:16;5.77;;;3.20;;
18090;SDS011;9172;49.948;9.208;2024-01-30T02:48:45;6.70;;;3.47;;
18090;SDS011;9172;49.948;9.208;2024-01-30T02:51:13;5.73;;;3.57;;
18090;SDS011;9172;49.948;9.208;2024-01-30T02:53:42;6.37;;;3.33;;
18090;SDS011;9172;49.948;9.208;2024-01-30T02:56:10;5.60;;;3.80;;
18090;SDS011;9172;49.948;9.208;2024-01-30T02:58:40;7.03;;;3.47;;
18090;SDS011;9172;49.948;9.208;2024-01-30T03:01:09;8.10;;;3.23;;
18090;SDS011;9172;49.948;9.208;2024-01-30T03:03:37;4.17;;;3.07;;
18090;SDS011;9172;49.948;9.208;2024-01-30T03:06:06;4.57;;;2.70;;
18090;SDS011;9172;49.948;9.208;2024-01-30T03:08:35;9.07;;;3.13;;
18090;SDS011;9172;49.948;9.208;2024-01-30T03:11:04;4.13;;;2.13;;
18090;SDS011;9172;49.948;9.208;2024-01-30T03:13:32;3.30;;;2.20;;
18090;SDS011;9172;49.948;9.208;2024-01-30T03:16:01;5.23;;;2.50;;
18090;SDS011;9172;49.948;9.208;2024-01-30T03:18:30;3.37;;;2.10;;
18090;SDS011;9172;49.948;9.208;2024-01-30T03:20:59;6.90;;;2.50;;
18090;SDS011;9172;49.948;9.208;2024-01-30T03:23:28;6.50;;;2.60;;
18090;SDS011;9172;49.948;9.208;2024-01-30T03:26:01;5.93;;;2.40;;
18090;SDS011;9172;49.948;9.208;2024-01-30T03:28:33;5.93;;;2.80;;
18090;SDS011;9172;49.948;9.208;2024-01-30T03:31:01;3.37;;;2.73;;
18090;SDS011;9172;49.948;9.208;2024-01-30T03:33:33;6.30;;;2.77;;
18090;SDS011;9172;49.948;9.208;2024-01-30T03:36:04;5.07;;;2.40;;
18090;SDS011;9172;49.948;9.208;2024-01-30T03:38:33;6.07;;;2.73;;
18090;SDS011;9172;49.948;9.208;2024-01-30T03:41:02;4.93;;;2.83;;
18090;SDS011;9172;49.948;9.208;2024-01-30T03:43:33;4.87;;;2.53;;
18090;SDS011;9172;49.948;9.208;2024-01-30T03:46:02;6.17;;;2.60;;
18090;SDS011;9172;49.948;9.208;2024-01-30T03:48:31;8.27;;;3.57;;
18090;SDS011;9172;49.948;9.208;2024-01-30T03:51:03;5.20;;;2.70;;
18090;SDS011;9172;49.948;9.208;2024-01-30T03:53:32;5.03;;;2.67;;
18090;SDS011;9172;49.948;9.208;2024-01-30T03:56:01;7.00;;;3.10;;
18090;SDS011;9172;49.948;9.208;2024-01-30T03:58:30;4.10;;;2.50;;
18090;SDS011;9172;49.948;9.208;2024-01-30T04:00:58;6.27;;;3.07;;
18090;SDS011;9172;49.948;9.208;2024-01-30T04:03:27;4.10;;;2.67;;
18090;SDS011;9172;49.948;9.208;2024-01-30T04:05:55;5.53;;;2.70;;
18090;SDS011;9172;49.948;9.208;2024-01-30T04:08:24;5.97;;;2.67;;
18090;SDS011;9172;49.948;9.208;2024-01-30T04:10:52;5.47;;;3.40;;
18090;SDS011;9172;49.948;9.208;2024-01-30T04:13:21;5.80;;;2.97;;
18090;SDS011;9172;49.948;9.208;2024-01-30T04:15:50;4.90;;;2.67;;
18090;SDS011;9172;49.948;9.208;2024-01-30T04:18:20;4.93;;;2.93;;
18090;SDS011;9172;49.948;9.208;2024-01-30T04:20:48;5.40;;;3.57;;
18090;SDS011;9172;49.948;9.208;2024-01-30T04:23:17;7.13;;;3.37;;
18090;SDS011;9172;49.948;9.208;2024-01-30T04:25:46;6.47;;;3.50;;
18090;SDS011;9172;49.948;9.208;2024-01-30T04:28:14;5.10;;;3.33;;
18090;SDS011;9172;49.948;9.208;2024-01-30T04:30:43;5.70;;;3.43;;
18090;SDS011;9172;49.948;9.208;2024-01-30T04:33:11;7.13;;;3.73;;
18090;SDS011;9172;49.948;9.208;2024-01-30T04:35:40;8.23;;;3.97;;
18090;SDS011;9172;49.948;9.208;2024-01-30T04:38:08;6.37;;;3.23;;
18090;SDS011;9172;49.948;9.208;2024-01-30T04:40:37;7.37;;;4.13;;
18090;SDS011;9172;49.948;9.208;2024-01-30T04:43:06;4.73;;;3.40;;
18090;SDS011;9172;49.948;9.208;2024-01-30T04:45:34;10.27;;;3.80;;
18090;SDS011;9172;49.948;9.208;2024-01-30T04:48:03;5.07;;;2.90;;
18090;SDS011;9172;49.948;9.208;2024-01-30T04:50:33;4.83;;;2.90;;
18090;SDS011;9172;49.948;9.208;2024-01-30T04:53:02;4.53;;;2.80;;
18090;SDS011;9172;49.948;9.208;2024-01-30T04:55:31;5.30;;;2.50;;
18090;SDS011;9172;49.948;9.208;2024-01-30T04:57:59;3.47;;;2.53;;
18090;SDS011;9172;49.948;9.208;2024-01-30T05:00:28;4.83;;;3.00;;
18090;SDS011;9172;49.948;9.208;2024-01-30T05:02:56;7.50;;;3.27;;
18090;SDS011;9172;49.948;9.208;2024-01-30T05:05:25;6.03;;;3.20;;
18090;SDS011;9172;49.948;9.208;2024-01-30T05:07:53;5.40;;;3.30;;
18090;SDS011;9172;49.948;9.208;2024-01-30T05:10:22;5.90;;;3.53;;
18090;SDS011;9172;49.948;9.208;2024-01-30T05:12:50;6.17;;;3.23;;
18090;SDS011;9172;49.948;9.208;2024-01-30T05:15:19;4.67;;;2.63;;
18090;SDS011;9172;49.948;9.208;2024-01-30T05:17:48;5.23;;;3.07;;
18090;SDS011;9172;49.948;9.208;2024-01-30T05:20:17;4.47;;;2.43;;
18090;SDS011;9172;49.948;9.208;2024-01-30T05:22:47;10.63;;;2.43;;
18090;SDS011;9172;49.948;9.208;2024-01-30T05:25:15;7.90;;;2.80;;
18090;SDS011;9172;49.948;9.208;2024-01-30T05:27:44;5.77;;;2.87;;
18090;SDS011;9172;49.948;9.208;2024-01-30T05:30:13;9.57;;;3.57;;
18090;SDS011;9172;49.948;9.208;2024-01-30T05:32:41;6.47;;;2.60;;
18090;SDS011;9172;49.948;9.208;2024-01-30T05:35:10;5.53;;;2.27;;
18090;SDS011;9172;49.948;9.208;2024-01-30T05:37:39;5.77;;;2.57;;
18090;SDS011;9172;49.948;9.208;2024-01-30T05:40:08;5.00;;;2.60;;
18090;SDS011;9172;49.948;9.208;2024-01-30T05:42:38;4.77;;;2.97;;
18090;SDS011;9172;49.948;9.208;2024-01-30T05:45:07;5.23;;;2.90;;
18090;SDS011;9172;49.948;9.208;2024-01-30T05:47:36;4.60;;;2.77;;
18090;SDS011;9172;49.948;9.208;2024-01-30T05:50:07;5.33;;;3.40;;
18090;SDS011;9172;49.948;9.208;2024-01-30T05:52:35;7.27;;;3.23;;
18090;SDS011;9172;49.948;9.208;2024-01-30T05:55:04;5.80;;;3.20;;
18090;SDS011;9172;49.948;9.208;2024-01-30T05:57:33;4.93;;;3.03;;
18090;SDS011;9172;49.948;9.208;2024-01-30T06:00:04;6.97;;;3.90;;
18090;SDS011;9172;49.948;9.208;2024-01-30T06:02:35;5.80;;;3.30;;
18090;SDS011;9172;49.948;9.208;2024-01-30T06:05:04;5.60;;;3.33;;
18090;SDS011;9172;49.948;9.208;2024-01-30T06:07:33;7.60;;;3.80;;
18090;SDS011;9172;49.948;9.208;2024-01-30T06:10:01;10.53;;;3.53;;
18090;SDS011;9172;49.948;9.208;2024-01-30T06:12:31;5.03;;;3.33;;
18090;SDS011;9172;49.948;9.208;2024-01-30T06:14:59;9.93;;;3.53;;
18090;SDS011;9172;49.948;9.208;2024-01-30T06:17:28;7.43;;;3.70;;
18090;SDS011;9172;49.948;9.208;2024-01-30T06:19:57;6.13;;;3.07;;
18090;SDS011;9172;49.948;9.208;2024-01-30T06:22:26;6.53;;;4.33;;
18090;SDS011;9172;49.948;9.208;2024-01-30T06:24:54;10.00;;;3.93;;
18090;SDS011;9172;49.948;9.208;2024-01-30T06:27:23;9.53;;;3.70;;
18090;SDS011;9172;49.948;9.208;2024-01-30T06:29:51;5.53;;;4.00;;
18090;SDS011;9172;49.948;9.208;2024-01-30T06:32:20;9.60;;;3.23;;
18090;SDS011;9172;49.948;9.208;2024-01-30T06:34:48;5.43;;;3.10;;
18090;SDS011;9172;49.948;9.208;2024-01-30T06:37:17;4.87;;;3.20;;
18090;SDS011;9172;49.948;9.208;2024-01-30T06:39:45;5.10;;;3.23;;
18090;SDS011;9172;49.948;9.208;2024-01-30T06:42:14;6.23;;;3.70;;
18090;SDS011;9172;49.948;9.208;2024-01-30T06:44:43;8.17;;;3.50;;
18090;SDS011;9172;49.948;9.208;2024-01-30T06:47:11;6.27;;;2.93;;
18090;SDS011;9172;49.948;9.208;2024-01-30T06:49:40;3.97;;;2.87;;
18090;SDS011;9172;49.948;9.208;2024-01-30T06:52:10;6.67;;;3.23;;
18090;SDS011;9172;49.948;9.208;2024-01-30T06:54:38;6.77;;;3.10;;
18090;SDS011;9172;49.948;9.208;2024-01-30T06:57:07;5.20;;;2.83;;
18090;SDS011;9172;49.948;9.208;2024-01-30T06:59:37;6.07;;;2.80;;
18090;SDS011;9172;49.948;9.208;2024-01-30T07:02:07;6.07;;;3.27;;
18090;SDS011;9172;49.948;9.208;2024-01-30T07:04:36;5.17;;;3.37;;
18090;SDS011;9172;49.948;9.208;2024-01-30T07:07:05;10.03;;;3.63;;
18090;SDS011;9172;49.948;9.208;2024-01-30T07:09:35;7.33;;;3.50;;
18090;SDS011;9172;49.948;9.208;2024-01-30T07:12:05;6.53;;;3.03;;
18090;SDS011;9172;49.948;9.208;2024-01-30T07:14:35;6.00;;;3.00;;
18090;SDS011;9172;49.948;9.208;2024-01-30T07:17:04;10.20;;;3.50;;
18090;SDS011;9172;49.948;9.208;2024-01-30T07:19:33;4.73;;;3.10;;
18090;SDS011;9172;49.948;9.208;2024-01-30T07:22:02;9.17;;;3.73;;
18090;SDS011;9172;49.948;9.208;2024-01-30T07:24:31;6.17;;;3.50;;
18090;SDS011;9172;49.948;9.208;2024-01-30T07:26:59;6.50;;;3.43;;
18090;SDS011;9172;49.948;9.208;2024-01-30T07:29:28;6.80;;;3.10;;
18090;SDS011;9172;49.948;9.208;2024-01-30T07:31:57;5.83;;;3.70;;
18090;SDS011;9172;49.948;9.208;2024-01-30T07:34:25;6.17;;;3.37;;
18090;SDS011;9172;49.948;9.208;2024-01-30T07:36:54;5.90;;;3.50;;
18090;SDS011;9172;49.948;9.208;2024-01-30T07:39:22;5.80;;;3.10;;
18090;SDS011;9172;49.948;9.208;2024-01-30T07:41:51;4.40;;;2.73;;
18090;SDS011;9172;49.948;9.208;2024-01-30T07:44:20;9.67;;;2.70;;
18090;SDS011;9172;49.948;9.208;2024-01-30T07:46:49;7.43;;;3.13;;
18090;SDS011;9172;49.948;9.208;2024-01-30T07:49:18;7.67;;;3.80;;
18090;SDS011;9172;49.948;9.208;2024-01-30T07:51:47;6.23;;;3.17;;
18090;SDS011;9172;49.948;9.208;2024-01-30T07:54:15;8.63;;;2.80;;
18090;SDS011;9172;49.948;9.208;2024-01-30T08:03:30;4.40;;;2.77;;
18090;SDS011;9172;49.948;9.208;2024-01-30T08:06:00;6.87;;;2.40;;
18090;SDS011;9172;49.948;9.208;2024-01-30T08:08:29;5.23;;;2.90;;
18090;SDS011;9172;49.948;9.208;2024-01-30T08:11:01;6.40;;;2.37;;
18090;SDS011;9172;49.948;9.208;2024-01-30T08:13:29;8.60;;;2.80;;
18090;SDS011;9172;49.948;9.208;2024-01-30T08:15:58;6.77;;;2.67;;
18090;SDS011;9172;49.948;9.208;2024-01-30T08:18:27;4.63;;;2.63;;
18090;SDS011;9172;49.948;9.208;2024-01-30T08:20:58;5.47;;;2.93;;
18090;SDS011;9172;49.948;9.208;2024-01-30T08:23:27;3.40;;;2.63;;
18090;SDS011;9172;49.948;9.208;2024-01-30T08:25:55;10.30;;;2.60;;
18090;SDS011;9172;49.948;9.208;2024-01-30T08:28:24;7.13;;;3.20;;
18090;SDS011;9172;49.948;9.208;2024-01-30T08:30:53;5.83;;;3.37;;
18090;SDS011;9172;49.948;9.208;2024-01-30T08:33:24;6.70;;;2.80;;
18090;SDS011;9172;49.948;9.208;2024-01-30T08:35:52;9.10;;;2.63;;
18090;SDS011;9172;49.948;9.208;2024-01-30T08:38:21;6.10;;;3.47;;
18090;SDS011;9172;49.948;9.208;2024-01-30T08:43:36;7.70;;;2.50;;
18090;SDS011;9172;49.948;9.208;2024-01-30T08:46:07;5.90;;;2.87;;
18090;SDS011;9172;49.948;9.208;2024-01-30T08:48:36;4.60;;;2.60;;
18090;SDS011;9172;49.948;9.208;2024-01-30T08:51:07;5.70;;;2.77;;
18090;SDS011;9172;49.948;9.208;2024-01-30T08:53:37;5.23;;;2.80;;
18090;SDS011;9172;49.948;9.208;2024-01-30T08:56:07;4.37;;;2.20;;
18090;SDS011;9172;49.948;9.208;2024-01-30T08:58:38;6.97;;;3.43;;
18090;SDS011;9172;49.948;9.208;2024-01-30T09:01:06;10.77;;;5.87;;
18090;SDS011;9172;49.948;9.208;2024-01-30T09:03:38;15.40;;;6.50;;
18090;SDS011;9172;49.948;9.208;2024-01-30T09:06:08;15.87;;;6.90;;
18090;SDS011;9172;49.948;9.208;2024-01-30T09:08:38;16.77;;;8.27;;
18090;SDS011;9172;49.948;9.208;2024-01-30T09:11:08;15.27;;;8.00;;
18090;SDS011;9172;49.948;9.208;2024-01-30T09:13:37;13.43;;;7.30;;
18090;SDS011;9172;49.948;9.208;2024-01-30T09:16:08;17.07;;;8.27;;
18090;SDS011;9172;49.948;9.208;2024-01-30T09:18:37;19.00;;;6.83;;
18090;SDS011;9172;49.948;9.208;2024-01-30T09:21:05;15.67;;;7.70;;
18090;SDS011;9172;49.948;9.208;2024-01-30T09:23:34;16.23;;;9.10;;
18090;SDS011;9172;49.948;9.208;2024-01-30T09:26:05;14.47;;;7.73;;
18090;SDS011;9172;49.948;9.208;2024-01-30T09:28:37;23.47;;;9.73;;
18090;SDS011;9172;49.948;9.208;2024-01-30T09:31:09;18.70;;;8.53;;
18090;SDS011;9172;49.948;9.208;2024-01-30T09:33:38;16.63;;;8.83;;
18090;SDS011;9172;49.948;9.208;2024-01-30T09:36:08;20.87;;;9.83;;
18090;SDS011;9172;49.948;9.208;2024-01-30T09:38:37;20.67;;;9.20;;
18090;SDS011;9172;49.948;9.208;2024-01-30T09:41:09;16.80;;;7.80;;
18090;SDS011;9172;49.948;9.208;2024-01-30T09:43:46;11.40;;;5.67;;
18090;SDS011;9172;49.948;9.208;2024-01-30T09:46:17;11.37;;;5.30;;
18090;SDS011;9172;49.948;9.208;2024-01-30T09:48:47;11.60;;;5.60;;
18090;SDS011;9172;49.948;9.208;2024-01-30T09:51:17;10.40;;;4.93;;
18090;SDS011;9172;49.948;9.208;2024-01-30T09:53:46;10.57;;;5.00;;
18090;SDS011;9172;49.948;9.208;2024-01-30T09:56:17;7.77;;;4.13;;
18090;SDS011;9172;49.948;9.208;2024-01-30T10:01:30;7.73;;;3.27;;
18090;SDS011;9172;49.948;9.208;2024-01-30T10:04:01;6.57;;;3.83;;
18090;SDS011;9172;49.948;9.208;2024-01-30T10:06:30;5.53;;;3.10;;
18090;SDS011;9172;49.948;9.208;2024-01-30T10:08:59;7.47;;;2.73;;
18090;SDS011;9172;49.948;9.208;2024-01-30T10:11:27;6.43;;;2.80;;
18090;SDS011;9172;49.948;9.208;2024-01-30T10:13:56;6.07;;;3.07;;
18090;SDS011;9172;49.948;9.208;2024-01-30T10:16:25;4.27;;;2.90;;
18090;SDS011;9172;49.948;9.208;2024-01-30T10:18:53;7.83;;;3.03;;
18090;SDS011;9172;49.948;9.208;2024-01-30T10:21:22;6.00;;;2.93;;
18090;SDS011;9172;49.948;9.208;2024-01-30T10:23:51;5.70;;;2.93;;
18090;SDS011;9172;49.948;9.208;2024-01-30T10:26:19;8.03;;;3.90;;
18090;SDS011;9172;49.948;9.208;2024-01-30T10:28:49;6.43;;;3.10;;
18090;SDS011;9172;49.948;9.208;2024-01-30T10:31:18;5.60;;;2.70;;
18090;SDS011;9172;49.948;9.208;2024-01-30T10:33:46;8.40;;;3.57;;
18090;SDS011;9172;49.948;9.208;2024-01-30T10:36:15;4.93;;;2.60;;
18090;SDS011;9172;49.948;9.208;2024-01-30T10:38:44;4.47;;;2.47;;
18090;SDS011;9172;49.948;9.208;2024-01-30T10:41:15;8.10;;;2.70;;
18090;SDS011;9172;49.948;9.208;2024-01-30T10:43:49;5.93;;;3.23;;
18090;SDS011;9172;49.948;9.208;2024-01-30T10:46:29;9.37;;;2.90;;
18090;SDS011;9172;49.948;9.208;2024-01-30T10:49:00;5.43;;;3.07;;
18090;SDS011;9172;49.948;9.208;2024-01-30T10:51:29;4.23;;;2.63;;
18090;SDS011;9172;49.948;9.208;2024-01-30T10:53:59;5.80;;;2.60;;
18090;SDS011;9172;49.948;9.208;2024-01-30T10:56:29;3.87;;;2.60;;
18090;SDS011;9172;49.948;9.208;2024-01-30T10:58:59;4.90;;;2.87;;
18090;SDS011;9172;49.948;9.208;2024-01-30T11:01:28;5.17;;;2.90;;
18090;SDS011;9172;49.948;9.208;2024-01-30T11:03:57;5.00;;;2.80;;
18090;SDS011;9172;49.948;9.208;2024-01-30T11:06:26;5.37;;;2.90;;
18090;SDS011;9172;49.948;9.208;2024-01-30T11:09:01;5.37;;;2.83;;
18090;SDS011;9172;49.948;9.208;2024-01-30T11:11:32;4.63;;;2.70;;
18090;SDS011;9172;49.948;9.208;2024-01-30T11:14:14;3.60;;;2.50;;
18090;SDS011;9172;49.948;9.208;2024-01-30T11:16:43;4.90;;;2.60;;
18090;SDS011;9172;49.948;9.208;2024-01-30T11:19:12;5.43;;;3.50;;
18090;SDS011;9172;49.948;9.208;2024-01-30T11:21:42;5.20;;;2.40;;
18090;SDS011;9172;49.948;9.208;2024-01-30T11:24:10;5.03;;;2.67;;
18090;SDS011;9172;49.948;9.208;2024-01-30T11:26:42;7.13;;;2.77;;
18090;SDS011;9172;49.948;9.208;2024-01-30T11:29:13;6.43;;;2.70;;
18090;SDS011;9172;49.948;9.208;2024-01-30T11:31:51;7.47;;;2.60;;
18090;SDS011;9172;49.948;9.208;2024-01-30T11:34:20;7.00;;;2.63;;
18090;SDS011;9172;49.948;9.208;2024-01-30T11:36:52;6.17;;;3.30;;
18090;SDS011;9172;49.948;9.208;2024-01-30T11:39:25;7.03;;;2.47;;
18090;SDS011;9172;49.948;9.208;2024-01-30T11:41:54;4.20;;;2.50;;
18090;SDS011;9172;49.948;9.208;2024-01-30T11:44:23;9.10;;;2.77;;
18090;SDS011;9172;49.948;9.208;2024-01-30T11:46:52;8.40;;;2.90;;
18090;SDS011;9172;49.948;9.208;2024-01-30T11:49:21;4.57;;;2.50;;
18090;SDS011;9172;49.948;9.208;2024-01-30T11:51:51;6.53;;;2.90;;
18090;SDS011;9172;49.948;9.208;2024-01-30T11:54:20;5.13;;;2.97;;
18090;SDS011;9172;49.948;9.208;2024-01-30T11:56:49;4.27;;;2.83;;
18090;SDS011;9172;49.948;9.208;2024-01-30T11:59:18;5.33;;;3.03;;
18090;SDS011;9172;49.948;9.208;2024-01-30T12:01:46;4.77;;;2.40;;
18090;SDS011;9172;49.948;9.208;2024-01-30T12:04:19;7.10;;;2.63;;
18090;SDS011;9172;49.948;9.208;2024-01-30T12:06:51;5.03;;;3.00;;
18090;SDS011;9172;49.948;9.208;2024-01-30T12:09:20;4.57;;;2.57;;
18090;SDS011;9172;49.948;9.208;2024-01-30T12:11:52;3.60;;;2.50;;
18090;SDS011;9172;49.948;9.208;2024-01-30T12:14:21;5.00;;;2.63;;
18090;SDS011;9172;49.948;9.208;2024-01-30T12:16:52;5.83;;;3.07;;
18090;SDS011;9172;49.948;9.208;2024-01-30T12:19:24;8.33;;;2.77;;
18090;SDS011;9172;49.948;9.208;2024-01-30T12:21:55;3.60;;;2.57;;
18090;SDS011;9172;49.948;9.208;2024-01-30T12:24:25;6.90;;;3.23;;
18090;SDS011;9172;49.948;9.208;2024-01-30T12:26:57;4.83;;;2.80;;
18090;SDS011;9172;49.948;9.208;2024-01-30T12:29:25;4.80;;;3.00;;
18090;SDS011;9172;49.948;9.208;2024-01-30T12:31:54;4.30;;;2.63;;
18090;SDS011;9172;49.948;9.208;2024-01-30T12:34:25;3.30;;;2.10;;
18090;SDS011;9172;49.948;9.208;2024-01-30T12:36:53;4.40;;;2.57;;
18090;SDS011;9172;49.948;9.208;2024-01-30T12:39:22;7.97;;;2.57;;
18090;SDS011;9172;49.948;9.208;2024-01-30T12:41:51;6.33;;;2.87;;
18090;SDS011;9172;49.948;9.208;2024-01-30T12:44:19;5.30;;;2.93;;
18090;SDS011;9172;49.948;9.208;2024-01-30T12:46:49;10.37;;;3.03;;
18090;SDS011;9172;49.948;9.208;2024-01-30T12:49:17;5.80;;;3.00;;
18090;SDS011;9172;49.948;9.208;2024-01-30T12:51:46;5.73;;;2.43;;
18090;SDS011;9172;49.948;9.208;2024-01-30T12:54:15;7.13;;;2.73;;
18090;SDS011;9172;49.948;9.208;2024-01-30T12:56:43;4.80;;;2.80;;
18090;SDS011;9172;49.948;9.208;2024-01-30T12:59:12;6.20;;;2.70;;
18090;SDS011;9172;49.948;9.208;2024-01-30T13:01:41;6.57;;;2.83;;
18090;SDS011;9172;49.948;9.208;2024-01-30T13:04:09;4.93;;;3.00;;
18090;SDS011;9172;49.948;9.208;2024-01-30T13:06:38;9.30;;;3.57;;
18090;SDS011;9172;49.948;9.208;2024-01-30T13:09:07;5.67;;;2.70;;
18090;SDS011;9172;49.948;9.208;2024-01-30T13:11:35;6.23;;;2.73;;
18090;SDS011;9172;49.948;9.208;2024-01-30T13:14:04;5.03;;;3.10;;
18090;SDS011;9172;49.948;9.208;2024-01-30T13:16:32;4.37;;;2.77;;
18090;SDS011;9172;49.948;9.208;2024-01-30T13:19:01;7.57;;;3.50;;
18090;SDS011;9172;49.948;9.208;2024-01-30T13:21:29;5.00;;;2.80;;
18090;SDS011;9172;49.948;9.208;2024-01-30T13:23:58;6.13;;;2.63;;
18090;SDS011;9172;49.948;9.208;2024-01-30T13:26:27;6.10;;;2.93;;
18090;SDS011;9172;49.948;9.208;2024-01-30T13:28:57;4.53;;;2.70;;
18090;SDS011;9172;49.948;9.208;2024-01-30T13:31:25;5.03;;;2.67;;
18090;SDS011;9172;49.948;9.208;2024-01-30T13:33:54;3.77;;;2.40;;
18090;SDS011;9172;49.948;9.208;2024-01-30T13:36:22;4.53;;;3.20;;
18090;SDS011;9172;49.948;9.208;2024-01-30T13:38:51;4.17;;;2.50;;
18090;SDS011;9172;49.948;9.208;2024-01-30T13:41:20;3.13;;;2.33;;
18090;SDS011;9172;49.948;9.208;2024-01-30T13:43:49;4.20;;;2.57;;
18090;SDS011;9172;49.948;9.208;2024-01-30T13:46:22;5.23;;;2.77;;
18090;SDS011;9172;49.948;9.208;2024-01-30T13:48:50;4.67;;;2.70;;
18090;SDS011;9172;49.948;9.208;2024-01-30T13:51:19;6.60;;;2.90;;
18090;SDS011;9172;49.948;9.208;2024-01-30T13:53:48;5.23;;;2.77;;
18090;SDS011;9172;49.948;9.208;2024-01-30T13:56:19;5.17;;;2.97;;
18090;SDS011;9172;49.948;9.208;2024-01-30T13:58:48;7.73;;;2.70;;
18090;SDS011;9172;49.948;9.208;2024-01-30T14:01:19;6.43;;;2.70;;
18090;SDS011;9172;49.948;9.208;2024-01-30T14:03:50;5.37;;;2.60;;
18090;SDS011;9172;49.948;9.208;2024-01-30T14:06:19;5.40;;;2.77;;
18090;SDS011;9172;49.948;9.208;2024-01-30T14:08:49;6.77;;;2.80;;
18090;SDS011;9172;49.948;9.208;2024-01-30T14:11:20;7.50;;;2.57;;
18090;SDS011;9172;49.948;9.208;2024-01-30T14:13:49;4.17;;;2.60;;
18090;SDS011;9172;49.948;9.208;2024-01-30T14:16:22;7.77;;;3.07;;
18090;SDS011;9172;49.948;9.208;2024-01-30T14:18:51;5.43;;;2.73;;
18090;SDS011;9172;49.948;9.208;2024-01-30T14:21:20;6.20;;;3.20;;
18090;SDS011;9172;49.948;9.208;2024-01-30T14:23:50;3.70;;;2.20;;
18090;SDS011;9172;49.948;9.208;2024-01-30T14:26:18;4.47;;;2.60;;
18090;SDS011;9172;49.948;9.208;2024-01-30T14:28:47;4.60;;;2.30;;
18090;SDS011;9172;49.948;9.208;2024-01-30T14:31:16;6.57;;;2.73;;
18090;SDS011;9172;49.948;9.208;2024-01-30T14:33:46;8.53;;;3.00;;
18090;SDS011;9172;49.948;9.208;2024-01-30T14:36:14;5.97;;;3.03;;
18090;SDS011;9172;49.948;9.208;2024-01-30T14:38:43;13.57;;;3.43;;
18090;SDS011;9172;49.948;9.208;2024-01-30T14:41:11;5.50;;;3.10;;
18090;SDS011;9172;49.948;9.208;2024-01-30T14:43:40;7.10;;;3.20;;
18090;SDS011;9172;49.948;9.208;2024-01-30T14:46:09;6.17;;;3.13;;
18090;SDS011;9172;49.948;9.208;2024-01-30T14:48:38;4.97;;;2.70;;
18090;SDS011;9172;49.948;9.208;2024-01-30T14:51:07;4.80;;;2.50;;
18090;SDS011;9172;49.948;9.208;2024-01-30T14:53:35;4.80;;;2.57;;
18090;SDS011;9172;49.948;9.208;2024-01-30T14:56:04;5.20;;;2.53;;
18090;SDS011;9172;49.948;9.208;2024-01-30T14:58:34;6.40;;;2.87;;
18090;SDS011;9172;49.948;9.208;2024-01-30T15:01:03;5.77;;;2.63;;
18090;SDS011;9172;49.948;9.208;2024-01-30T15:03:32;6.83;;;2.70;;
18090;SDS011;9172;49.948;9.208;2024-01-30T15:06:02;4.50;;;2.53;;
18090;SDS011;9172;49.948;9.208;2024-01-30T15:08:31;4.50;;;2.60;;
18090;SDS011;9172;49.948;9.208;2024-01-30T15:10:59;8.07;;;2.60;;
18090;SDS011;9172;49.948;9.208;2024-01-30T15:13:30;6.53;;;3.10;;
18090;SDS011;9172;49.948;9.208;2024-01-30T15:15:58;5.70;;;2.50;;
18090;SDS011;9172;49.948;9.208;2024-01-30T15:18:29;4.93;;;2.80;;
18090;SDS011;9172;49.948;9.208;2024-01-30T15:20:58;4.77;;;3.03;;
18090;SDS011;9172;49.948;9.208;2024-01-30T15:23:26;6.80;;;3.13;;
18090;SDS011;9172;49.948;9.208;2024-01-30T15:25:55;4.30;;;3.00;;